Dresden, North Dakota
Current Conditions -  °F | °C
As of 6:35 PM on Saturday 25 Oct 2014 (Local Time) from KD55 Reporting Station
Clear Clear  
Wind Chill: 43°   Ceiling: Unl
Heat Index: 46°   Visibility: 10mi
Dew Point: 19°   Wind: 7mph
Humidity: 34%   Direction: 300°WNW
Pressure: 30.01"   Gusts: NA
Location:  48.8344°N, 98.3538°W
Report Text: KD55 252335Z AUTO 30006KT 10SM CLR 08/M07 A3001 RMK AO2
Loading
Personal Weather Stations






























Interactive Weather Map
Tropical Storm Tracking
New forecast layout! Learn more

10-Day Weather Forecast

Advertisements
Track Severe Weather on mobile